createdAt,value
2019-03-31T00:03:50.870Z,37.48
2019-03-31T00:08:54.628Z,38.07
2019-03-31T00:13:58.467Z,37.57
2019-03-31T00:19:02.653Z,38.16
2019-03-31T00:24:06.361Z,38.68
2019-03-31T00:29:09.981Z,38.38
2019-03-31T00:34:13.600Z,37.06
2019-03-31T00:39:17.223Z,36.85
2019-03-31T00:44:21.645Z,35.19
2019-03-31T00:49:25.290Z,34.41
2019-03-31T00:54:28.903Z,33.86
2019-03-31T00:59:32.733Z,33.35
2019-03-31T01:04:36.287Z,33.61
2019-03-31T01:09:39.964Z,33.75
2019-03-31T01:14:43.579Z,33.14
2019-03-31T01:19:47.198Z,33.66
2019-03-31T01:24:50.817Z,33.24
2019-03-31T01:29:54.443Z,33.57
2019-03-31T01:34:58.072Z,34.09
2019-03-31T01:40:01.680Z,34.83
2019-03-31T01:45:07.037Z,34.95
2019-03-31T01:50:12.067Z,35.41
2019-03-31T01:55:15.719Z,35.71
2019-03-31T02:00:30.190Z,36.31
2019-03-31T02:05:33.826Z,36.76
2019-03-31T02:10:37.535Z,36.58
2019-03-31T02:15:41.149Z,38.19
2019-03-31T02:20:44.764Z,38.43
2019-03-31T02:25:48.383Z,39.01
2019-03-31T02:30:51.933Z,38.88
2019-03-31T02:35:55.626Z,39.29
2019-03-31T02:40:59.252Z,39.30
2019-03-31T02:46:02.883Z,39.60
2019-03-31T02:51:06.587Z,39.90
2019-03-31T02:56:10.208Z,38.65
2019-03-31T03:01:13.828Z,37.36
2019-03-31T03:06:17.443Z,36.39
2019-03-31T03:11:21.277Z,34.87
2019-03-31T03:16:24.889Z,34.38
2019-03-31T03:21:28.445Z,33.55
2019-03-31T03:26:31.988Z,33.21
2019-03-31T03:31:35.649Z,33.40
2019-03-31T03:36:43.013Z,33.55
2019-03-31T03:41:44.527Z,33.71
2019-03-31T03:46:48.142Z,33.84
2019-03-31T03:51:51.755Z,33.94
2019-03-31T03:56:55.374Z,34.08
2019-03-31T04:01:59.009Z,34.90
2019-03-31T04:07:02.621Z,35.17
2019-03-31T04:12:06.190Z,35.44
2019-03-31T04:17:09.748Z,37.18
2019-03-31T04:22:13.356Z,38.14
2019-03-31T04:27:19.152Z,37.79
2019-03-31T04:32:22.195Z,37.68
2019-03-31T04:37:25.748Z,36.25
2019-03-31T04:42:29.356Z,38.26
2019-03-31T04:47:32.909Z,39.10
2019-03-31T04:52:36.973Z,36.88
2019-03-31T04:57:40.497Z,36.75
2019-03-31T05:02:44.091Z,38.81
2019-03-31T05:07:47.618Z,37.53
2019-03-31T05:12:51.211Z,36.04
2019-03-31T05:17:54.764Z,35.14
2019-03-31T05:22:58.345Z,33.97
2019-03-31T05:28:01.874Z,33.23
2019-03-31T05:33:05.449Z,33.15
2019-03-31T05:38:09.007Z,33.20
2019-03-31T05:43:12.588Z,33.28
2019-03-31T05:48:16.136Z,33.59
2019-03-31T05:53:19.709Z,33.63
2019-03-31T05:58:23.267Z,33.71
2019-03-31T06:03:26.833Z,33.79
2019-03-31T06:08:30.361Z,33.88
2019-03-31T06:13:34.031Z,33.93
2019-03-31T06:18:37.559Z,33.83
2019-03-31T06:23:41.130Z,34.02
2019-03-31T06:28:44.708Z,33.76
2019-03-31T06:33:48.260Z,33.98
2019-03-31T06:38:51.833Z,33.77
2019-03-31T06:43:55.412Z,33.38
2019-03-31T06:48:59.017Z,33.80
2019-03-31T06:54:02.570Z,33.79
2019-03-31T06:59:06.148Z,32.97
2019-03-31T07:04:09.705Z,33.35
2019-03-31T07:09:13.273Z,33.50
2019-03-31T07:14:16.849Z,33.78
2019-03-31T07:19:20.460Z,33.61
2019-03-31T07:24:24.083Z,33.80
2019-03-31T07:29:27.704Z,34.30
2019-03-31T07:34:31.286Z,33.66
2019-03-31T07:39:35.225Z,33.17
2019-03-31T07:44:39.084Z,32.85
2019-03-31T07:49:42.688Z,32.47
2019-03-31T07:54:46.216Z,32.21
2019-03-31T07:59:49.832Z,32.25
2019-03-31T08:04:53.343Z,32.31
2019-03-31T08:09:56.963Z,32.05
2019-03-31T08:15:00.590Z,32.63
2019-03-31T08:20:09.885Z,32.38
2019-03-31T08:25:12.933Z,32.28
2019-03-31T08:30:17.487Z,32.32
2019-03-31T08:35:21.015Z,32.28
2019-03-31T08:40:24.728Z,32.50
2019-03-31T08:45:30.455Z,32.56
2019-03-31T08:50:34.950Z,32.33
2019-03-31T08:55:38.762Z,32.29
2019-03-31T09:00:43.914Z,32.23
2019-03-31T09:06:00.569Z,32.11
2019-03-31T09:10:52.891Z,32.46
2019-03-31T09:15:56.832Z,31.94
2019-03-31T09:21:00.432Z,32.02
2019-03-31T09:26:05.081Z,32.24
2019-03-31T09:31:08.702Z,32.45
2019-03-31T09:36:16.389Z,32.79
2019-03-31T09:41:17.681Z,32.83
2019-03-31T09:46:21.323Z,32.87
2019-03-31T09:51:24.863Z,33.30
2019-03-31T09:56:28.431Z,33.27
2019-03-31T10:01:32.381Z,33.76
2019-03-31T10:06:38.203Z,33.87
2019-03-31T10:11:41.858Z,33.77
2019-03-31T10:16:45.576Z,33.73
2019-03-31T10:26:53.583Z,34.77
2019-03-31T10:31:57.460Z,34.53
2019-03-31T10:37:01.127Z,35.12
2019-03-31T10:42:05.214Z,35.35
2019-03-31T10:47:09.298Z,35.57
2019-03-31T10:52:12.962Z,35.49
2019-03-31T10:57:16.988Z,35.95
2019-03-31T11:02:20.965Z,36.02
2019-03-31T11:07:24.639Z,36.76
2019-03-31T11:12:28.379Z,36.00
2019-03-31T11:17:31.926Z,36.46
2019-03-31T11:22:55.571Z,36.57
2019-03-31T11:27:59.187Z,36.59
2019-03-31T11:33:02.800Z,36.75
2019-03-31T11:38:06.427Z,37.04
2019-03-31T11:43:10.043Z,36.97
2019-03-31T11:48:13.565Z,36.58
2019-03-31T11:53:17.291Z,37.75
2019-03-31T11:58:20.903Z,37.43
2019-03-31T12:03:24.524Z,37.78
2019-03-31T12:08:28.470Z,37.95
2019-03-31T12:13:32.177Z,37.94
2019-03-31T12:18:35.787Z,38.16
2019-03-31T12:23:39.915Z,38.69
2019-03-31T12:28:43.584Z,38.41
2019-03-31T12:33:47.259Z,36.08
2019-03-31T12:38:53.675Z,38.41
2019-03-31T12:43:56.177Z,38.23
2019-03-31T12:48:59.967Z,36.73
2019-03-31T12:54:03.530Z,36.41
2019-03-31T12:59:07.198Z,39.64
2019-03-31T13:04:10.819Z,38.82
2019-03-31T13:09:14.434Z,40.22
2019-03-31T13:14:17.956Z,36.61
2019-03-31T13:19:21.532Z,35.85
2019-03-31T13:24:25.094Z,38.98
2019-03-31T13:29:28.713Z,36.41
2019-03-31T13:34:32.288Z,39.33
2019-03-31T13:39:35.813Z,35.16
2019-03-31T13:44:39.396Z,36.89
2019-03-31T13:49:42.905Z,37.40
2019-03-31T13:54:46.501Z,39.43
2019-03-31T13:59:50.109Z,43.27
2019-03-31T14:04:53.945Z,43.22
2019-03-31T14:09:57.873Z,45.04
2019-03-31T14:15:01.642Z,45.76
2019-03-31T14:20:07.779Z,45.55
2019-03-31T14:25:11.393Z,43.43
2019-03-31T14:30:15.123Z,43.13
2019-03-31T14:35:18.652Z,40.77
2019-03-31T14:40:22.257Z,44.28
2019-03-31T14:45:30.655Z,44.28
2019-03-31T14:50:35.511Z,43.60
2019-03-31T14:55:39.155Z,43.92
2019-03-31T15:01:00.795Z,43.14
2019-03-31T15:06:04.826Z,40.77
2019-03-31T15:11:08.344Z,38.83
2019-03-31T15:16:12.065Z,41.90
2019-03-31T15:21:15.601Z,40.86
2019-03-31T15:26:19.446Z,39.47
2019-03-31T15:31:23.023Z,40.54
2019-03-31T15:36:26.649Z,39.71
2019-03-31T15:41:30.299Z,40.31
2019-03-31T15:46:33.988Z,39.06
2019-03-31T15:51:37.609Z,39.28
2019-03-31T15:56:41.222Z,38.73
2019-03-31T16:01:44.758Z,38.90
2019-03-31T16:06:48.467Z,38.11
2019-03-31T16:11:53.900Z,38.67
2019-03-31T16:16:57.319Z,40.14
2019-03-31T16:22:00.957Z,40.72
2019-03-31T16:27:04.890Z,41.00
2019-03-31T16:32:08.516Z,39.53
2019-03-31T16:37:12.124Z,39.58
2019-03-31T16:42:15.740Z,36.80
2019-03-31T16:47:19.368Z,43.03
2019-03-31T16:52:22.984Z,42.79
2019-03-31T16:57:26.603Z,41.41
2019-03-31T17:02:30.224Z,41.02
2019-03-31T17:07:33.790Z,40.05
2019-03-31T17:12:37.312Z,40.49
2019-03-31T17:17:40.885Z,39.45
2019-03-31T17:22:44.427Z,34.56
2019-03-31T17:27:48.046Z,36.04
2019-03-31T17:32:51.618Z,38.80
2019-03-31T17:37:55.213Z,36.15
2019-03-31T17:42:58.747Z,32.71
2019-03-31T17:48:02.325Z,35.77
2019-03-31T17:53:06.120Z,33.73
2019-03-31T17:58:09.712Z,35.06
2019-03-31T18:03:15.604Z,35.60
2019-03-31T18:08:18.719Z,35.49
2019-03-31T18:13:22.330Z,39.87
2019-03-31T18:18:25.944Z,36.66
2019-03-31T18:23:29.767Z,43.62
2019-03-31T18:28:33.394Z,42.55
2019-03-31T18:33:37.013Z,44.97
2019-03-31T18:38:40.817Z,44.05
2019-03-31T18:43:51.135Z,41.76
2019-03-31T18:48:50.047Z,44.60
2019-03-31T18:53:55.176Z,47.12
2019-03-31T18:59:00.427Z,46.16
2019-03-31T19:04:22.234Z,43.63
2019-03-31T19:09:27.429Z,46.50
2019-03-31T19:14:35.563Z,44.63
2019-03-31T19:19:56.826Z,44.64
2019-03-31T19:25:04.815Z,43.32
2019-03-31T19:30:15.933Z,41.21
2019-03-31T19:35:21.163Z,39.16
2019-03-31T19:40:27.349Z,39.29
2019-03-31T19:45:32.883Z,39.63
2019-03-31T19:50:54.791Z,39.90
2019-03-31T19:56:07.761Z,40.01
2019-03-31T20:01:18.610Z,40.29
2019-03-31T20:06:24.081Z,40.71
2019-03-31T20:11:29.241Z,40.87
2019-03-31T20:16:37.349Z,40.87
2019-03-31T20:21:45.188Z,40.60
2019-03-31T20:26:50.376Z,38.79
2019-03-31T20:31:55.507Z,39.01
2019-03-31T20:37:19.147Z,42.61
2019-03-31T20:42:36.323Z,41.44
2019-03-31T20:47:39.859Z,40.77
2019-03-31T20:52:43.419Z,44.52
2019-03-31T20:57:47.017Z,43.24
2019-03-31T21:02:50.662Z,42.17
2019-03-31T21:07:54.290Z,46.31
2019-03-31T21:12:57.831Z,42.83
2019-03-31T21:18:01.522Z,45.19
2019-03-31T21:23:05.341Z,37.36
2019-03-31T21:28:08.958Z,43.93
2019-03-31T21:33:12.584Z,40.99
2019-03-31T21:38:16.128Z,38.97
2019-03-31T21:43:19.722Z,44.91
2019-03-31T21:48:23.334Z,43.33
2019-03-31T21:53:26.957Z,40.41
2019-03-31T21:58:30.576Z,38.91
2019-03-31T22:03:34.189Z,37.42
2019-03-31T22:08:37.764Z,36.71
2019-03-31T22:13:41.334Z,36.55
2019-03-31T22:18:44.953Z,36.47
2019-03-31T22:23:57.727Z,36.83
2019-03-31T22:28:53.933Z,37.23
2019-03-31T22:33:57.631Z,37.42
2019-03-31T22:39:01.272Z,37.53
2019-03-31T22:44:04.993Z,38.23
2019-03-31T22:49:08.629Z,38.80
2019-03-31T22:54:12.227Z,38.54
2019-03-31T22:59:15.854Z,37.92
2019-03-31T23:04:19.401Z,37.44
2019-03-31T23:09:22.963Z,41.30
2019-03-31T23:14:26.495Z,40.97
2019-03-31T23:19:30.126Z,40.98
2019-03-31T23:24:33.745Z,36.73
2019-03-31T23:29:37.365Z,40.84
2019-03-31T23:34:40.984Z,42.60
2019-03-31T23:39:44.634Z,41.90
2019-03-31T23:44:48.327Z,38.78
2019-03-31T23:49:51.944Z,38.23
2019-03-31T23:54:55.569Z,40.22
2019-03-31T23:59:59.183Z,42.71
